^^
Station Historical Data
Daily Summary for August 11, 2017 Units:  Both    English   Metric
« Previous Day
Next Day »
Daily Weekly Monthly Yearly Custom
  High: Low: Average:
Temperature: TemperatureF °F /  -17.8 °C 44.6 °F /  7 °C 59.2 °F /  15.1 °C
Dew Point: DewpointF °F /  -17.8 °C 20.8 °F /  -6.2 °C 24 °F /  -4.4 °C
Humidity: Humidity% 14% 27%
Wind Speed: WindSpeedMPHmph /  0km/h - 0.5mph /  0.8km/h
Wind Gust: WindSpeedGustMPHmph /  0km/h - -
Wind- - SSE
Pressure: PressureIn in /  0 hPa 30.31 in /  1026.3 hPa -
Precipitation: 0.00 in /  0 mm    
Historical Graphs
 
 
Tabular Data for August 11, 2017
Time Temperature Dew Point Pressure Wind Wind Speed Wind Gust Humidity Rainfall Rate (Hourly) solar Conditions
TemperatureF °F /  -17.8 °C DewpointF °F /  -17.8 °C PressureInin /  0hPa Calm     Humidity% HourlyPrecipInin /  0mm SolarRadiationWatts/m^2 W/m2 Conditions
00:04 51.3 °F /  10.7 °C 23.9 °F /  -4.5 °C 30.36in /  1028hPa Calm     34% 0.00in /  0mm 0.0 W/m2
00:10 51.4 °F /  10.8 °C 24.1 °F /  -4.4 °C 30.35in /  1027.7hPa Calm     34% 0.00in /  0mm 0.0 W/m2
00:16 51.6 °F /  10.9 °C 24.1 °F /  -4.4 °C 30.35in /  1027.7hPa Calm   3.0mph /  4.8km/h 34% 0.00in /  0mm 0.0 W/m2
00:22 51.6 °F /  10.9 °C 24.1 °F /  -4.4 °C 30.35in /  1027.7hPa Calm   1.0mph /  1.6km/h 34% 0.00in /  0mm 0.0 W/m2
00:28 51.4 °F /  10.8 °C 24.1 °F /  -4.4 °C 30.35in /  1027.7hPa Calm   1.0mph /  1.6km/h 34% 0.00in /  0mm 0.0 W/m2
00:34 51.3 °F /  10.7 °C 23.9 °F /  -4.5 °C 30.35in /  1027.7hPa Calm   1.0mph /  1.6km/h 34% 0.00in /  0mm 0.0 W/m2
00:40 51.1 °F /  10.6 °C 23.7 °F /  -4.6 °C 30.35in /  1027.7hPa Calm     34% 0.00in /  0mm 0.0 W/m2
00:46 50.7 °F /  10.4 °C 24.1 °F /  -4.4 °C 30.35in /  1027.7hPa Calm     35% 0.00in /  0mm 0.0 W/m2
00:52 50.5 °F /  10.3 °C 23.2 °F /  -4.9 °C 30.35in /  1027.7hPa Calm   3.0mph /  4.8km/h 34% 0.00in /  0mm 0.0 W/m2
00:58 50.4 °F /  10.2 °C 23.7 °F /  -4.6 °C 30.35in /  1027.7hPa Calm   1.0mph /  1.6km/h 35% 0.00in /  0mm 0.0 W/m2
01:04 50.0 °F /  10 °C 24.1 °F /  -4.4 °C 30.35in /  1027.7hPa Calm     36% 0.00in /  0mm 0.0 W/m2
01:10 49.8 °F /  9.9 °C 23.9 °F /  -4.5 °C 30.35in /  1027.7hPa Calm     36% 0.00in /  0mm 0.0 W/m2
01:16 49.6 °F /  9.8 °C 23.7 °F /  -4.6 °C 30.35in /  1027.7hPa Calm   1.0mph /  1.6km/h 36% 0.00in /  0mm 0.0 W/m2
01:22 49.5 °F /  9.7 °C 23.5 °F /  -4.7 °C 30.35in /  1027.7hPa Calm     36% 0.00in /  0mm 0.0 W/m2
01:28 49.5 °F /  9.7 °C 23.5 °F /  -4.7 °C 30.35in /  1027.7hPa Calm   1.0mph /  1.6km/h 36% 0.00in /  0mm 0.0 W/m2
01:34 49.5 °F /  9.7 °C 23.5 °F /  -4.7 °C 30.35in /  1027.7hPa Calm   1.0mph /  1.6km/h 36% 0.00in /  0mm 0.0 W/m2
01:40 49.3 °F /  9.6 °C 24.1 °F /  -4.4 °C 30.35in /  1027.7hPa Calm   3.0mph /  4.8km/h 37% 0.00in /  0mm 0.0 W/m2
01:46 49.5 °F /  9.7 °C 23.5 °F /  -4.7 °C 30.35in /  1027.7hPa Calm   1.0mph /  1.6km/h 36% 0.00in /  0mm 0.0 W/m2
01:52 49.6 °F /  9.8 °C 23.7 °F /  -4.6 °C 30.35in /  1027.7hPa Calm   2.0mph /  3.2km/h 36% 0.00in /  0mm 0.0 W/m2
01:58 49.6 °F /  9.8 °C 23.7 °F /  -4.6 °C 30.35in /  1027.7hPa Calm     36% 0.00in /  0mm 0.0 W/m2
02:04 49.8 °F /  9.9 °C 23.9 °F /  -4.5 °C 30.35in /  1027.7hPa Calm     36% 0.00in /  0mm 0.0 W/m2
02:10 49.6 °F /  9.8 °C 23.7 °F /  -4.6 °C 30.35in /  1027.7hPa Calm   1.0mph /  1.6km/h 36% 0.00in /  0mm 0.0 W/m2
02:16 49.8 °F /  9.9 °C 23.9 °F /  -4.5 °C 30.35in /  1027.7hPa Calm   1.0mph /  1.6km/h 36% 0.00in /  0mm 0.0 W/m2
02:22 49.8 °F /  9.9 °C 23.9 °F /  -4.5 °C 30.35in /  1027.7hPa East 0.9mph /  1.4km/h 1.0mph /  1.6km/h 36% 0.00in /  0mm 0.0 W/m2
02:28 49.8 °F /  9.9 °C 23.9 °F /  -4.5 °C 30.35in /  1027.7hPa Calm   1.0mph /  1.6km/h 36% 0.00in /  0mm 0.0 W/m2
02:34 49.8 °F /  9.9 °C 23.9 °F /  -4.5 °C 30.35in /  1027.7hPa Calm   2.0mph /  3.2km/h 36% 0.00in /  0mm 0.0 W/m2
02:40 49.8 °F /  9.9 °C 23.9 °F /  -4.5 °C 30.35in /  1027.7hPa Calm   3.0mph /  4.8km/h 36% 0.00in /  0mm 0.0 W/m2
02:46 50.2 °F /  10.1 °C 24.3 °F /  -4.3 °C 30.35in /  1027.7hPa Calm   2.0mph /  3.2km/h 36% 0.00in /  0mm 0.0 W/m2
02:52 50.2 °F /  10.1 °C 24.3 °F /  -4.3 °C 30.35in /  1027.7hPa Calm   4.0mph /  6.4km/h 36% 0.00in /  0mm 0.0 W/m2
02:58 50.2 °F /  10.1 °C 24.3 °F /  -4.3 °C 30.35in /  1027.7hPa Calm     36% 0.00in /  0mm 0.0 W/m2
03:04 49.8 °F /  9.9 °C 24.6 °F /  -4.1 °C 30.35in /  1027.7hPa Calm   1.0mph /  1.6km/h 37% 0.00in /  0mm 0.0 W/m2
03:10 50.0 °F /  10 °C 24.1 °F /  -4.4 °C 30.35in /  1027.7hPa Calm     36% 0.00in /  0mm 0.0 W/m2
03:16 49.8 °F /  9.9 °C 23.9 °F /  -4.5 °C 30.34in /  1027.3hPa Calm     36% 0.00in /  0mm 0.0 W/m2
03:22 49.5 °F /  9.7 °C 23.5 °F /  -4.7 °C 30.35in /  1027.7hPa Calm     36% 0.00in /  0mm 0.0 W/m2
03:28 49.3 °F /  9.6 °C 24.8 °F /  -4 °C 30.35in /  1027.7hPa Calm     38% 0.00in /  0mm 0.0 W/m2
03:34 48.9 °F /  9.4 °C 24.4 °F /  -4.2 °C 30.35in /  1027.7hPa Calm     38% 0.00in /  0mm 0.0 W/m2
03:40 48.7 °F /  9.3 °C 24.3 °F /  -4.3 °C 30.35in /  1027.7hPa Calm     38% 0.00in /  0mm 0.0 W/m2
03:46 48.4 °F /  9.1 °C 23.9 °F /  -4.5 °C 30.35in /  1027.7hPa Calm   2.0mph /  3.2km/h 38% 0.00in /  0mm 0.0 W/m2
03:52 48.0 °F /  8.9 °C 24.3 °F /  -4.3 °C 30.35in /  1027.7hPa Calm     39% 0.00in /  0mm 0.0 W/m2
03:58 47.7 °F /  8.7 °C 23.9 °F /  -4.5 °C 30.35in /  1027.7hPa Calm     39% 0.00in /  0mm 0.0 W/m2
04:04 47.1 °F /  8.4 °C 24.1 °F /  -4.4 °C 30.35in /  1027.7hPa Calm     40% 0.00in /  0mm 0.0 W/m2
04:14 46.2 °F /  7.9 °C 23.9 °F /  -4.5 °C 30.35in /  1027.7hPa Calm     41% 0.00in /  0mm 0.0 W/m2
04:20 45.9 °F /  7.7 °C 24.1 °F /  -4.4 °C 30.35in /  1027.7hPa Calm     42% 0.00in /  0mm 0.0 W/m2
04:22 45.7 °F /  7.6 °C 24.4 °F /  -4.2 °C 30.35in /  1027.7hPa Calm     43% 0.00in /  0mm 0.0 W/m2
04:28 45.3 °F /  7.4 °C 24.1 °F /  -4.4 °C 30.35in /  1027.7hPa Calm     43% 0.00in /  0mm 0.0 W/m2
04:34 45.0 °F /  7.2 °C 23.7 °F /  -4.6 °C 30.35in /  1027.7hPa Calm   1.0mph /  1.6km/h 43% 0.00in /  0mm 0.0 W/m2
04:40 45.0 °F /  7.2 °C 23.7 °F /  -4.6 °C 30.35in /  1027.7hPa Calm   1.0mph /  1.6km/h 43% 0.00in /  0mm 0.0 W/m2
04:46 45.0 °F /  7.2 °C 23.7 °F /  -4.6 °C 30.35in /  1027.7hPa Calm     43% 0.00in /  0mm 0.0 W/m2
04:50 45.0 °F /  7.2 °C 23.2 °F /  -4.9 °C 30.36in /  1028hPa Calm     42% 0.00in /  0mm 0.0 W/m2
04:56 44.8 °F /  7.1 °C 23.7 °F /  -4.6 °C 30.36in /  1028hPa Calm     43% 0.00in /  0mm 0.0 W/m2
05:03 44.8 °F /  7.1 °C 24.3 °F /  -4.3 °C 30.36in /  1028hPa Calm     44% 0.00in /  0mm 0.0 W/m2
05:09 44.8 °F /  7.1 °C 23.7 °F /  -4.6 °C 30.36in /  1028hPa Calm     43% 0.00in /  0mm 0.0 W/m2
05:15 44.6 °F /  7 °C 23.5 °F /  -4.7 °C 30.37in /  1028.3hPa Calm     43% 0.00in /  0mm 0.0 W/m2
05:21 45.0 °F /  7.2 °C 23.7 °F /  -4.6 °C 30.37in /  1028.3hPa Calm     43% 0.00in /  0mm 0.0 W/m2
05:27 45.3 °F /  7.4 °C 23.5 °F /  -4.7 °C 30.38in /  1028.7hPa Calm     42% 0.00in /  0mm 0.0 W/m2
05:33 45.3 °F /  7.4 °C 23.5 °F /  -4.7 °C 30.38in /  1028.7hPa Calm   1.0mph /  1.6km/h 42% 0.00in /  0mm 0.0 W/m2
05:39 45.5 °F /  7.5 °C 23.7 °F /  -4.6 °C 30.38in /  1028.7hPa Calm   2.0mph /  3.2km/h 42% 0.00in /  0mm 0.0 W/m2
05:45 45.7 °F /  7.6 °C 23.9 °F /  -4.5 °C 30.38in /  1028.7hPa Calm   1.0mph /  1.6km/h 42% 0.00in /  0mm 0.0 W/m2
05:51 45.9 °F /  7.7 °C 24.1 °F /  -4.4 °C 30.38in /  1028.7hPa Calm     42% 0.00in /  0mm 0.0 W/m2
05:58 45.9 °F /  7.7 °C 24.1 °F /  -4.4 °C 30.38in /  1028.7hPa Calm     42% 0.00in /  0mm 0.0 W/m2
06:04 45.3 °F /  7.4 °C 23.5 °F /  -4.7 °C 30.38in /  1028.7hPa Calm   1.0mph /  1.6km/h 42% 0.00in /  0mm 0.0 W/m2
06:09 45.5 °F /  7.5 °C 23.7 °F /  -4.6 °C 30.38in /  1028.7hPa Calm   1.0mph /  1.6km/h 42% 0.00in /  0mm 0.0 W/m2
06:15 45.5 °F /  7.5 °C 23.7 °F /  -4.6 °C 30.38in /  1028.7hPa Calm     42% 0.00in /  0mm 0.0 W/m2
06:22 45.7 °F /  7.6 °C 23.9 °F /  -4.5 °C 30.39in /  1029hPa Calm     42% 0.00in /  0mm 0.0 W/m2
06:28 45.9 °F /  7.7 °C 23.5 °F /  -4.7 °C 30.39in /  1029hPa East 4.0mph /  6.4km/h 4.0mph /  6.4km/h 41% 0.00in /  0mm 7.0 W/m2
06:34 46.0 °F /  7.8 °C 23.7 °F /  -4.6 °C 30.39in /  1029hPa Calm     41% 0.00in /  0mm 11.0 W/m2
06:40 46.0 °F /  7.8 °C 23.7 °F /  -4.6 °C 30.39in /  1029hPa Calm   1.0mph /  1.6km/h 41% 0.00in /  0mm 12.0 W/m2
06:46 45.9 °F /  7.7 °C 24.1 °F /  -4.4 °C 30.39in /  1029hPa Calm     42% 0.00in /  0mm 14.0 W/m2
06:52 45.9 °F /  7.7 °C 24.1 °F /  -4.4 °C 30.40in /  1029.3hPa Calm   1.0mph /  1.6km/h 42% 0.00in /  0mm 16.0 W/m2
06:58 45.9 °F /  7.7 °C 23.5 °F /  -4.7 °C 30.40in /  1029.3hPa Calm   2.0mph /  3.2km/h 41% 0.00in /  0mm 19.0 W/m2
07:04 46.0 °F /  7.8 °C 23.7 °F /  -4.6 °C 30.40in /  1029.3hPa Calm   3.0mph /  4.8km/h 41% 0.00in /  0mm 19.0 W/m2
07:10 46.4 °F /  8 °C 23.9 °F /  -4.5 °C 30.40in /  1029.3hPa Calm   2.0mph /  3.2km/h 41% 0.00in /  0mm 21.0 W/m2
07:16 46.8 °F /  8.2 °C 24.8 °F /  -4 °C 30.40in /  1029.3hPa Calm   1.0mph /  1.6km/h 42% 0.00in /  0mm 23.0 W/m2
07:22 46.9 °F /  8.3 °C 24.4 °F /  -4.2 °C 30.40in /  1029.3hPa Calm   1.0mph /  1.6km/h 41% 0.00in /  0mm 25.0 W/m2
07:28 47.5 °F /  8.6 °C 25.0 °F /  -3.9 °C 30.40in /  1029.3hPa Calm   1.0mph /  1.6km/h 41% 0.00in /  0mm 26.0 W/m2
07:35 48.4 °F /  9.1 °C 25.2 °F /  -3.8 °C 30.40in /  1029.3hPa Calm   2.0mph /  3.2km/h 40% 0.00in /  0mm 28.0 W/m2
07:41 48.9 °F /  9.4 °C 25.7 °F /  -3.5 °C 30.40in /  1029.3hPa Calm     40% 0.00in /  0mm 28.0 W/m2
07:47 50.4 °F /  10.2 °C 25.0 °F /  -3.9 °C 30.40in /  1029.3hPa Calm   1.0mph /  1.6km/h 37% 0.00in /  0mm 30.0 W/m2
07:53 51.4 °F /  10.8 °C 25.3 °F /  -3.7 °C 30.40in /  1029.3hPa Calm   1.0mph /  1.6km/h 36% 0.00in /  0mm 30.0 W/m2
07:59 52.3 °F /  11.3 °C 26.2 °F /  -3.2 °C 30.40in /  1029.3hPa Calm     36% 0.00in /  0mm 32.0 W/m2
08:05 53.2 °F /  11.8 °C 27.0 °F /  -2.8 °C 30.40in /  1029.3hPa Calm   4.0mph /  6.4km/h 36% 0.00in /  0mm 33.0 W/m2
08:11 54.3 °F /  12.4 °C 26.6 °F /  -3 °C 30.41in /  1029.7hPa East 2.0mph /  3.2km/h 3.0mph /  4.8km/h 34% 0.00in /  0mm 33.0 W/m2
08:18 55.8 °F /  13.2 °C 26.4 °F /  -3.1 °C 30.40in /  1029.3hPa Calm   4.0mph /  6.4km/h 32% 0.00in /  0mm 35.0 W/m2
08:23 57.0 °F /  13.9 °C 25.9 °F /  -3.4 °C 30.40in /  1029.3hPa Calm   2.0mph /  3.2km/h 30% 0.00in /  0mm 37.0 W/m2
08:30 58.6 °F /  14.8 °C 26.4 °F /  -3.1 °C 30.40in /  1029.3hPa Calm   4.0mph /  6.4km/h 29% 0.00in /  0mm 232.0 W/m2
08:36 60.6 °F /  15.9 °C 26.4 °F /  -3.1 °C 30.40in /  1029.3hPa North 4.0mph /  6.4km/h 4.0mph /  6.4km/h 27% 0.00in /  0mm 448.0 W/m2
08:42 62.4 °F /  16.9 °C 27.1 °F /  -2.7 °C 30.40in /  1029.3hPa NE 0.9mph /  1.4km/h 4.0mph /  6.4km/h 26% 0.00in /  0mm 469.0 W/m2
08:48 63.9 °F /  17.7 °C 27.3 °F /  -2.6 °C 30.41in /  1029.7hPa Calm   5.0mph /  8km/h 25% 0.00in /  0mm 490.0 W/m2
08:54 64.8 °F /  18.2 °C 27.1 °F /  -2.7 °C 30.41in /  1029.7hPa Calm   2.0mph /  3.2km/h 24% 0.00in /  0mm 510.0 W/m2
09:00 65.7 °F /  18.7 °C 27.9 °F /  -2.3 °C 30.41in /  1029.7hPa ENE 2.0mph /  3.2km/h 2.0mph /  3.2km/h 24% 0.00in /  0mm 527.0 W/m2
09:06 66.2 °F /  19 °C 27.3 °F /  -2.6 °C 30.41in /  1029.7hPa NE 2.0mph /  3.2km/h 5.0mph /  8km/h 23% 0.00in /  0mm 545.0 W/m2
09:12 66.9 °F /  19.4 °C 26.8 °F /  -2.9 °C 30.41in /  1029.7hPa NE 0.9mph /  1.4km/h 3.0mph /  4.8km/h 22% 0.00in /  0mm 561.0 W/m2
09:19 67.5 °F /  19.7 °C 27.3 °F /  -2.6 °C 30.41in /  1029.7hPa North 2.0mph /  3.2km/h 3.0mph /  4.8km/h 22% 0.00in /  0mm 578.0 W/m2
09:24 67.8 °F /  19.9 °C 27.5 °F /  -2.5 °C 30.41in /  1029.7hPa NNW 0.9mph /  1.4km/h 5.0mph /  8km/h 22% 0.00in /  0mm 589.0 W/m2
09:31 68.2 °F /  20.1 °C 27.9 °F /  -2.3 °C 30.41in /  1029.7hPa Calm   4.0mph /  6.4km/h 22% 0.00in /  0mm 605.0 W/m2
09:37 68.5 °F /  20.3 °C 28.2 °F /  -2.1 °C 30.41in /  1029.7hPa Calm   1.0mph /  1.6km/h 22% 0.00in /  0mm 622.0 W/m2
09:44 68.5 °F /  20.3 °C 27.1 °F /  -2.7 °C 30.41in /  1029.7hPa Calm   1.0mph /  1.6km/h 21% 0.00in /  0mm 640.0 W/m2
09:49 68.7 °F /  20.4 °C 28.4 °F /  -2 °C 30.41in /  1029.7hPa Calm   1.0mph /  1.6km/h 22% 0.00in /  0mm 652.0 W/m2
09:55 69.3 °F /  20.7 °C 27.7 °F /  -2.4 °C 30.40in /  1029.3hPa Calm   1.0mph /  1.6km/h 21% 0.00in /  0mm 664.0 W/m2
10:01 69.3 °F /  20.7 °C 27.7 °F /  -2.4 °C 30.40in /  1029.3hPa Calm   1.0mph /  1.6km/h 21% 0.00in /  0mm 677.0 W/m2
10:07 69.3 °F /  20.7 °C 27.7 °F /  -2.4 °C 30.40in /  1029.3hPa Calm   2.0mph /  3.2km/h 21% 0.00in /  0mm 687.0 W/m2
10:14 69.3 °F /  20.7 °C 27.7 °F /  -2.4 °C 30.40in /  1029.3hPa Calm   2.0mph /  3.2km/h 21% 0.00in /  0mm 698.0 W/m2
10:19 69.1 °F /  20.6 °C 27.5 °F /  -2.5 °C 30.40in /  1029.3hPa SW 0.9mph /  1.4km/h 2.0mph /  3.2km/h 21% 0.00in /  0mm 707.0 W/m2
10:25 69.3 °F /  20.7 °C 27.7 °F /  -2.4 °C 30.39in /  1029hPa NW 0.9mph /  1.4km/h 3.0mph /  4.8km/h 21% 0.00in /  0mm 719.0 W/m2
10:32 70.0 °F /  21.1 °C 28.2 °F /  -2.1 °C 30.39in /  1029hPa Calm   4.0mph /  6.4km/h 21% 0.00in /  0mm 728.0 W/m2
10:38 70.7 °F /  21.5 °C 27.7 °F /  -2.4 °C 30.40in /  1029.3hPa NNW 2.9mph /  4.7km/h 6.0mph /  9.7km/h 20% 0.00in /  0mm 738.0 W/m2
10:44 71.2 °F /  21.8 °C 28.0 °F /  -2.2 °C 30.39in /  1029hPa Calm   2.0mph /  3.2km/h 20% 0.00in /  0mm 742.0 W/m2
10:50 71.2 °F /  21.8 °C 26.8 °F /  -2.9 °C 30.39in /  1029hPa Calm   3.0mph /  4.8km/h 19% 0.00in /  0mm 752.0 W/m2
10:56 71.4 °F /  21.9 °C 27.0 °F /  -2.8 °C 30.39in /  1029hPa WNW 0.9mph /  1.4km/h 6.0mph /  9.7km/h 19% 0.00in /  0mm 761.0 W/m2
11:02 71.6 °F /  22 °C 27.1 °F /  -2.7 °C 30.38in /  1028.7hPa Calm   5.0mph /  8km/h 19% 0.00in /  0mm 763.0 W/m2
11:08 71.4 °F /  21.9 °C 27.0 °F /  -2.8 °C 30.38in /  1028.7hPa Calm   2.0mph /  3.2km/h 19% 0.00in /  0mm 766.0 W/m2
11:14 71.8 °F /  22.1 °C 27.3 °F /  -2.6 °C 30.38in /  1028.7hPa NNE 2.9mph /  4.7km/h 7.0mph /  11.3km/h 19% 0.00in /  0mm 775.0 W/m2
11:20 72.3 °F /  22.4 °C 26.4 °F /  -3.1 °C 30.38in /  1028.7hPa NNW 0.9mph /  1.4km/h 3.0mph /  4.8km/h 18% 0.00in /  0mm 777.0 W/m2
11:26 72.1 °F /  22.3 °C 26.2 °F /  -3.2 °C 30.38in /  1028.7hPa NW 4.9mph /  7.9km/h 6.0mph /  9.7km/h 18% 0.00in /  0mm 780.0 W/m2
11:33 72.3 °F /  22.4 °C 26.4 °F /  -3.1 °C 30.38in /  1028.7hPa NW 6.0mph /  9.7km/h 6.0mph /  9.7km/h 18% 0.00in /  0mm 780.0 W/m2
11:39 72.7 °F /  22.6 °C 26.8 °F /  -2.9 °C 30.38in /  1028.7hPa NNW 0.9mph /  1.4km/h 7.0mph /  11.3km/h 18% 0.00in /  0mm 782.0 W/m2
11:45 72.7 °F /  22.6 °C 25.3 °F /  -3.7 °C 30.38in /  1028.7hPa NE 2.9mph /  4.7km/h 4.0mph /  6.4km/h 17% 0.00in /  0mm 786.0 W/m2
11:51 73.2 °F /  22.9 °C 25.7 °F /  -3.5 °C 30.38in /  1028.7hPa Calm   3.0mph /  4.8km/h 17% 0.00in /  0mm 788.0 W/m2
11:57 73.6 °F /  23.1 °C 27.5 °F /  -2.5 °C 30.37in /  1028.3hPa WSW 4.9mph /  7.9km/h 9.0mph /  14.5km/h 18% 0.00in /  0mm 786.0 W/m2
12:03 73.2 °F /  22.9 °C 25.7 °F /  -3.5 °C 30.37in /  1028.3hPa Calm   2.0mph /  3.2km/h 17% 0.00in /  0mm 784.0 W/m2
12:09 73.0 °F /  22.8 °C 25.7 °F /  -3.5 °C 30.37in /  1028.3hPa SSW 2.9mph /  4.7km/h 3.0mph /  4.8km/h 17% 0.00in /  0mm 782.0 W/m2
12:15 72.9 °F /  22.7 °C 25.5 °F /  -3.6 °C 30.36in /  1028hPa SW 4.0mph /  6.4km/h 4.0mph /  6.4km/h 17% 0.00in /  0mm 780.0 W/m2
12:22 72.3 °F /  22.4 °C 26.4 °F /  -3.1 °C 30.36in /  1028hPa Calm   1.0mph /  1.6km/h 18% 0.00in /  0mm 775.0 W/m2
12:28 72.7 °F /  22.6 °C 25.3 °F /  -3.7 °C 30.36in /  1028hPa WNW 0.9mph /  1.4km/h 4.0mph /  6.4km/h 17% 0.00in /  0mm 773.0 W/m2
12:34 73.0 °F /  22.8 °C 25.7 °F /  -3.5 °C 30.35in /  1027.7hPa Calm   5.0mph /  8km/h 17% 0.00in /  0mm 765.0 W/m2
12:40 73.6 °F /  23.1 °C 26.1 °F /  -3.3 °C 30.35in /  1027.7hPa NW 6.9mph /  11.1km/h 7.0mph /  11.3km/h 17% 0.00in /  0mm 761.0 W/m2
12:46 73.6 °F /  23.1 °C 26.1 °F /  -3.3 °C 30.35in /  1027.7hPa SSW 0.9mph /  1.4km/h 1.0mph /  1.6km/h 17% 0.00in /  0mm 756.0 W/m2
12:52 73.6 °F /  23.1 °C 26.1 °F /  -3.3 °C 30.35in /  1027.7hPa NNE 0.9mph /  1.4km/h 4.0mph /  6.4km/h 17% 0.00in /  0mm 751.0 W/m2
12:58 74.1 °F /  23.4 °C 26.6 °F /  -3 °C 30.34in /  1027.3hPa Calm   2.0mph /  3.2km/h 17% 0.00in /  0mm 742.0 W/m2
13:04 74.5 °F /  23.6 °C 25.3 °F /  -3.7 °C 30.34in /  1027.3hPa NE 2.9mph /  4.7km/h 3.0mph /  4.8km/h 16% 0.00in /  0mm 737.0 W/m2
13:10 74.5 °F /  23.6 °C 25.3 °F /  -3.7 °C 30.33in /  1027hPa Calm   1.0mph /  1.6km/h 16% 0.00in /  0mm 728.0 W/m2
13:16 74.5 °F /  23.6 °C 25.3 °F /  -3.7 °C 30.33in /  1027hPa Calm   3.0mph /  4.8km/h 16% 0.00in /  0mm 715.0 W/m2
13:22 73.9 °F /  23.3 °C 25.0 °F /  -3.9 °C 30.33in /  1027hPa Calm   4.0mph /  6.4km/h 16% 0.00in /  0mm 708.0 W/m2
13:28 74.3 °F /  23.5 °C 25.2 °F /  -3.8 °C 30.33in /  1027hPa WNW 2.9mph /  4.7km/h 4.0mph /  6.4km/h 16% 0.00in /  0mm 698.0 W/m2
13:35 74.7 °F /  23.7 °C 25.5 °F /  -3.6 °C 30.32in /  1026.6hPa Calm   4.0mph /  6.4km/h 16% 0.00in /  0mm 686.0 W/m2
13:41 74.8 °F /  23.8 °C 25.7 °F /  -3.5 °C 30.32in /  1026.6hPa Calm   2.0mph /  3.2km/h 16% 0.00in /  0mm 677.0 W/m2
13:47 75.0 °F /  23.9 °C 24.3 °F /  -4.3 °C 30.32in /  1026.6hPa NNE 2.9mph /  4.7km/h 4.0mph /  6.4km/h 15% 0.00in /  0mm 663.0 W/m2
13:53 75.2 °F /  24 °C 24.4 °F /  -4.2 °C 30.32in /  1026.6hPa North 4.0mph /  6.4km/h 6.0mph /  9.7km/h 15% 0.00in /  0mm 650.0 W/m2
13:59 75.4 °F /  24.1 °C 26.1 °F /  -3.3 °C 30.32in /  1026.6hPa North 2.9mph /  4.7km/h 4.0mph /  6.4km/h 16% 0.00in /  0mm 635.0 W/m2
14:05 75.6 °F /  24.2 °C 24.6 °F /  -4.1 °C 30.32in /  1026.6hPa Calm   5.0mph /  8km/h 15% 0.00in /  0mm 619.0 W/m2
14:11 75.4 °F /  24.1 °C 24.4 °F /  -4.2 °C 30.32in /  1026.6hPa NE 6.9mph /  11.1km/h 7.0mph /  11.3km/h 15% 0.00in /  0mm 605.0 W/m2
14:18 75.4 °F /  24.1 °C 24.4 °F /  -4.2 °C 30.31in /  1026.3hPa Calm   5.0mph /  8km/h 15% 0.00in /  0mm 589.0 W/m2
14:24 75.4 °F /  24.1 °C 24.4 °F /  -4.2 °C 30.31in /  1026.3hPa WSW 0.9mph /  1.4km/h 7.0mph /  11.3km/h 15% 0.00in /  0mm 575.0 W/m2
14:30 74.7 °F /  23.7 °C 23.9 °F /  -4.5 °C 30.31in /  1026.3hPa Calm   2.0mph /  3.2km/h 15% 0.00in /  0mm 561.0 W/m2
14:36 74.7 °F /  23.7 °C 23.9 °F /  -4.5 °C 30.31in /  1026.3hPa WSW 2.0mph /  3.2km/h 5.0mph /  8km/h 15% 0.00in /  0mm 543.0 W/m2
14:42 75.0 °F /  23.9 °C 24.3 °F /  -4.3 °C 30.31in /  1026.3hPa West 2.0mph /  3.2km/h 7.0mph /  11.3km/h 15% 0.00in /  0mm 526.0 W/m2
14:48 74.8 °F /  23.8 °C 24.1 °F /  -4.4 °C 30.31in /  1026.3hPa Calm   3.0mph /  4.8km/h 15% 0.00in /  0mm 508.0 W/m2
14:55 74.7 °F /  23.7 °C 23.9 °F /  -4.5 °C 30.31in /  1026.3hPa Calm   1.0mph /  1.6km/h 15% 0.00in /  0mm 490.0 W/m2
15:01 74.8 °F /  23.8 °C 24.1 °F /  -4.4 °C 30.31in /  1026.3hPa Calm   4.0mph /  6.4km/h 15% 0.00in /  0mm 475.0 W/m2
15:07 75.0 °F /  23.9 °C 24.3 °F /  -4.3 °C 30.31in /  1026.3hPa NNE 4.0mph /  6.4km/h 5.0mph /  8km/h 15% 0.00in /  0mm 455.0 W/m2
15:13 75.0 °F /  23.9 °C 22.6 °F /  -5.2 °C 30.31in /  1026.3hPa Calm   3.0mph /  4.8km/h 14% 0.00in /  0mm 436.0 W/m2
15:19 75.6 °F /  24.2 °C 23.0 °F /  -5 °C 30.31in /  1026.3hPa Calm   3.0mph /  4.8km/h 14% 0.00in /  0mm 415.0 W/m2
15:25 75.9 °F /  24.4 °C 23.4 °F /  -4.8 °C 30.31in /  1026.3hPa NNW 2.0mph /  3.2km/h 3.0mph /  4.8km/h 14% 0.00in /  0mm 394.0 W/m2
15:31 76.3 °F /  24.6 °C 23.5 °F /  -4.7 °C 30.31in /  1026.3hPa NW 0.9mph /  1.4km/h 3.0mph /  4.8km/h 14% 0.00in /  0mm 374.0 W/m2
15:44 76.3 °F /  24.6 °C 23.5 °F /  -4.7 °C 30.31in /  1026.3hPa NE 4.0mph /  6.4km/h 6.0mph /  9.7km/h 14% 0.00in /  0mm 329.0 W/m2
15:50 75.6 °F /  24.2 °C 23.0 °F /  -5 °C 30.31in /  1026.3hPa Calm   5.0mph /  8km/h 14% 0.00in /  0mm 309.0 W/m2
15:56 75.0 °F /  23.9 °C 22.6 °F /  -5.2 °C 30.31in /  1026.3hPa NNW 2.0mph /  3.2km/h 4.0mph /  6.4km/h 14% 0.00in /  0mm 244.0 W/m2
16:02 74.7 °F /  23.7 °C 22.3 °F /  -5.4 °C 30.31in /  1026.3hPa NE 2.9mph /  4.7km/h 3.0mph /  4.8km/h 14% 0.00in /  0mm 51.0 W/m2
16:08 74.5 °F /  23.6 °C 23.7 °F /  -4.6 °C 30.31in /  1026.3hPa Calm   7.0mph /  11.3km/h 15% 0.00in /  0mm 47.0 W/m2
16:15 74.1 °F /  23.4 °C 23.5 °F /  -4.7 °C 30.31in /  1026.3hPa North 2.0mph /  3.2km/h 4.0mph /  6.4km/h 15% 0.00in /  0mm 44.0 W/m2
16:21 73.9 °F /  23.3 °C 23.4 °F /  -4.8 °C 30.31in /  1026.3hPa Calm   3.0mph /  4.8km/h 15% 0.00in /  0mm 46.0 W/m2
16:27 73.6 °F /  23.1 °C 23.0 °F /  -5 °C 30.31in /  1026.3hPa NNW 0.9mph /  1.4km/h 2.0mph /  3.2km/h 15% 0.00in /  0mm 53.0 W/m2
16:33 73.2 °F /  22.9 °C 22.8 °F /  -5.1 °C 30.31in /  1026.3hPa NE 0.9mph /  1.4km/h 4.0mph /  6.4km/h 15% 0.00in /  0mm 42.0 W/m2
16:39 72.9 °F /  22.7 °C 22.5 °F /  -5.3 °C 30.31in /  1026.3hPa Calm   1.0mph /  1.6km/h 15% 0.00in /  0mm 53.0 W/m2
16:45 72.7 °F /  22.6 °C 23.9 °F /  -4.5 °C 30.31in /  1026.3hPa Calm   1.0mph /  1.6km/h 16% 0.00in /  0mm 30.0 W/m2
16:51 72.3 °F /  22.4 °C 23.5 °F /  -4.7 °C 30.31in /  1026.3hPa Calm     16% 0.00in /  0mm 28.0 W/m2
16:57 72.0 °F /  22.2 °C 23.4 °F /  -4.8 °C 30.31in /  1026.3hPa Calm   1.0mph /  1.6km/h 16% 0.00in /  0mm 49.0 W/m2
17:03 72.0 °F /  22.2 °C 23.4 °F /  -4.8 °C 30.31in /  1026.3hPa West 2.0mph /  3.2km/h 2.0mph /  3.2km/h 16% 0.00in /  0mm 23.0 W/m2
17:09 71.8 °F /  22.1 °C 23.2 °F /  -4.9 °C 30.32in /  1026.6hPa West 2.9mph /  4.7km/h 3.0mph /  4.8km/h 16% 0.00in /  0mm 19.0 W/m2
17:15 71.2 °F /  21.8 °C 22.8 °F /  -5.1 °C 30.32in /  1026.6hPa Calm   1.0mph /  1.6km/h 16% 0.00in /  0mm 16.0 W/m2
17:21 70.9 °F /  21.6 °C 22.5 °F /  -5.3 °C 30.32in /  1026.6hPa Calm     16% 0.00in /  0mm 12.0 W/m2
17:27 70.3 °F /  21.3 °C 23.5 °F /  -4.7 °C 30.32in /  1026.6hPa Calm     17% 0.00in /  0mm 9.0 W/m2
17:33 69.8 °F /  21 °C 23.0 °F /  -5 °C 30.32in /  1026.6hPa Calm     17% 0.00in /  0mm 5.0 W/m2
17:39 69.1 °F /  20.6 °C 23.7 °F /  -4.6 °C 30.32in /  1026.6hPa Calm     18% 0.00in /  0mm 0.0 W/m2
17:45 68.4 °F /  20.2 °C 23.2 °F /  -4.9 °C 30.32in /  1026.6hPa Calm     18% 0.00in /  0mm 0.0 W/m2
17:51 67.6 °F /  19.8 °C 23.9 °F /  -4.5 °C 30.32in /  1026.6hPa Calm     19% 0.00in /  0mm 0.0 W/m2
17:57 66.9 °F /  19.4 °C 23.4 °F /  -4.8 °C 30.32in /  1026.6hPa Calm     19% 0.00in /  0mm 0.0 W/m2
18:03 66.0 °F /  18.9 °C 23.7 °F /  -4.6 °C 30.33in /  1027hPa Calm     20% 0.00in /  0mm 0.0 W/m2
18:09 65.5 °F /  18.6 °C 23.4 °F /  -4.8 °C 30.33in /  1027hPa Calm     20% 0.00in /  0mm 0.0 W/m2
18:13 64.9 °F /  18.3 °C 22.8 °F /  -5.1 °C 30.33in /  1027hPa Calm     20% 0.00in /  0mm 0.0 W/m2
18:19 64.2 °F /  17.9 °C 23.5 °F /  -4.7 °C 30.33in /  1027hPa Calm     21% 0.00in /  0mm 0.0 W/m2
18:25 63.7 °F /  17.6 °C 24.1 °F /  -4.4 °C 30.33in /  1027hPa Calm     22% 0.00in /  0mm 0.0 W/m2
18:31 63.0 °F /  17.2 °C 23.5 °F /  -4.7 °C 30.33in /  1027hPa Calm     22% 0.00in /  0mm 0.0 W/m2
18:37 62.1 °F /  16.7 °C 22.8 °F /  -5.1 °C 30.33in /  1027hPa Calm     22% 0.00in /  0mm 0.0 W/m2
18:43 61.3 °F /  16.3 °C 23.2 °F /  -4.9 °C 30.33in /  1027hPa Calm   1.0mph /  1.6km/h 23% 0.00in /  0mm 0.0 W/m2
18:49 60.6 °F /  15.9 °C 22.6 °F /  -5.2 °C 30.33in /  1027hPa Calm     23% 0.00in /  0mm 0.0 W/m2
18:55 60.1 °F /  15.6 °C 23.2 °F /  -4.9 °C 30.34in /  1027.3hPa Calm   1.0mph /  1.6km/h 24% 0.00in /  0mm 0.0 W/m2
19:01 59.5 °F /  15.3 °C 22.6 °F /  -5.2 °C 30.34in /  1027.3hPa Calm     24% 0.00in /  0mm 0.0 W/m2
19:08 59.0 °F /  15 °C 23.2 °F /  -4.9 °C 30.34in /  1027.3hPa Calm     25% 0.00in /  0mm 0.0 W/m2
19:14 58.6 °F /  14.8 °C 22.8 °F /  -5.1 °C 30.35in /  1027.7hPa Calm     25% 0.00in /  0mm 0.0 W/m2
19:20 58.3 °F /  14.6 °C 22.6 °F /  -5.2 °C 30.35in /  1027.7hPa Calm     25% 0.00in /  0mm 0.0 W/m2
19:26 57.7 °F /  14.3 °C 23.0 °F /  -5 °C 30.35in /  1027.7hPa Calm     26% 0.00in /  0mm 0.0 W/m2
19:32 57.4 °F /  14.1 °C 22.8 °F /  -5.1 °C 30.35in /  1027.7hPa Calm     26% 0.00in /  0mm 0.0 W/m2
19:38 57.0 °F /  13.9 °C 22.5 °F /  -5.3 °C 30.35in /  1027.7hPa Calm     26% 0.00in /  0mm 0.0 W/m2
19:44 56.8 °F /  13.8 °C 22.3 °F /  -5.4 °C 30.35in /  1027.7hPa Calm   1.0mph /  1.6km/h 26% 0.00in /  0mm 0.0 W/m2
19:50 56.7 °F /  13.7 °C 21.2 °F /  -6 °C 30.36in /  1028hPa Calm     25% 0.00in /  0mm 0.0 W/m2
19:56 56.7 °F /  13.7 °C 22.1 °F /  -5.5 °C 30.36in /  1028hPa Calm   2.0mph /  3.2km/h 26% 0.00in /  0mm 0.0 W/m2
20:02 56.7 °F /  13.7 °C 22.1 °F /  -5.5 °C 30.36in /  1028hPa Calm   1.0mph /  1.6km/h 26% 0.00in /  0mm 0.0 W/m2
20:09 56.5 °F /  13.6 °C 21.9 °F /  -5.6 °C 30.36in /  1028hPa Calm   1.0mph /  1.6km/h 26% 0.00in /  0mm 0.0 W/m2
20:15 56.5 °F /  13.6 °C 21.9 °F /  -5.6 °C 30.36in /  1028hPa Calm     26% 0.00in /  0mm 0.0 W/m2
20:21 56.3 °F /  13.5 °C 21.9 °F /  -5.6 °C 30.36in /  1028hPa Calm     26% 0.00in /  0mm 0.0 W/m2
20:27 55.8 °F /  13.2 °C 21.4 °F /  -5.9 °C 30.36in /  1028hPa Calm     26% 0.00in /  0mm 0.0 W/m2
20:33 55.4 °F /  13 °C 21.9 °F /  -5.6 °C 30.36in /  1028hPa ENE 2.0mph /  3.2km/h 3.0mph /  4.8km/h 27% 0.00in /  0mm 0.0 W/m2
20:39 55.2 °F /  12.9 °C 21.7 °F /  -5.7 °C 30.36in /  1028hPa East 0.9mph /  1.4km/h 1.0mph /  1.6km/h 27% 0.00in /  0mm 0.0 W/m2
20:45 55.2 °F /  12.9 °C 21.7 °F /  -5.7 °C 30.36in /  1028hPa Calm     27% 0.00in /  0mm 0.0 W/m2
20:52 54.9 °F /  12.7 °C 21.6 °F /  -5.8 °C 30.36in /  1028hPa Calm     27% 0.00in /  0mm 0.0 W/m2
20:58 54.1 °F /  12.3 °C 20.8 °F /  -6.2 °C 30.37in /  1028.3hPa Calm   1.0mph /  1.6km/h 27% 0.00in /  0mm 0.0 W/m2
21:04 54.0 °F /  12.2 °C 21.6 °F /  -5.8 °C 30.37in /  1028.3hPa Calm     28% 0.00in /  0mm 0.0 W/m2
21:10 53.6 °F /  12 °C 21.2 °F /  -6 °C 30.37in /  1028.3hPa Calm   1.0mph /  1.6km/h 28% 0.00in /  0mm 0.0 W/m2
21:16 53.4 °F /  11.9 °C 21.2 °F /  -6 °C 30.38in /  1028.7hPa Calm     28% 0.00in /  0mm 0.0 W/m2
21:22 53.2 °F /  11.8 °C 21.0 °F /  -6.1 °C 30.37in /  1028.3hPa Calm     28% 0.00in /  0mm 0.0 W/m2
21:28 53.2 °F /  11.8 °C 21.7 °F /  -5.7 °C 30.38in /  1028.7hPa Calm   2.0mph /  3.2km/h 29% 0.00in /  0mm 0.0 W/m2
21:34 52.9 °F /  11.6 °C 21.6 °F /  -5.8 °C 30.38in /  1028.7hPa Calm     29% 0.00in /  0mm 0.0 W/m2
21:41 52.5 °F /  11.4 °C 21.9 °F /  -5.6 °C 30.38in /  1028.7hPa Calm     30% 0.00in /  0mm 0.0 W/m2
21:47 52.2 °F /  11.2 °C 21.7 °F /  -5.7 °C 30.38in /  1028.7hPa Calm   2.0mph /  3.2km/h 30% 0.00in /  0mm 0.0 W/m2
21:53 52.3 °F /  11.3 °C 21.7 °F /  -5.7 °C 30.38in /  1028.7hPa Calm     30% 0.00in /  0mm 0.0 W/m2
21:59 52.5 °F /  11.4 °C 21.9 °F /  -5.6 °C 30.38in /  1028.7hPa Calm     30% 0.00in /  0mm 0.0 W/m2
22:05 52.5 °F /  11.4 °C 21.9 °F /  -5.6 °C 30.38in /  1028.7hPa ENE 0.9mph /  1.4km/h 1.0mph /  1.6km/h 30% 0.00in /  0mm 0.0 W/m2
22:11 52.9 °F /  11.6 °C 21.6 °F /  -5.8 °C 30.38in /  1028.7hPa Calm     29% 0.00in /  0mm 0.0 W/m2
22:17 53.1 °F /  11.7 °C 21.6 °F /  -5.8 °C 30.38in /  1028.7hPa Calm     29% 0.00in /  0mm 0.0 W/m2
22:24 53.1 °F /  11.7 °C 21.6 °F /  -5.8 °C 30.38in /  1028.7hPa Calm     29% 0.00in /  0mm 0.0 W/m2
22:30 52.9 °F /  11.6 °C 21.6 °F /  -5.8 °C 30.38in /  1028.7hPa Calm     29% 0.00in /  0mm 0.0 W/m2
22:36 52.5 °F /  11.4 °C 21.9 °F /  -5.6 °C 30.38in /  1028.7hPa Calm     30% 0.00in /  0mm 0.0 W/m2
22:42 52.3 °F /  11.3 °C 21.7 °F /  -5.7 °C 30.38in /  1028.7hPa Calm     30% 0.00in /  0mm 0.0 W/m2
22:48 52.0 °F /  11.1 °C 21.6 °F /  -5.8 °C 30.39in /  1029hPa Calm     30% 0.00in /  0mm 0.0 W/m2
22:54 51.6 °F /  10.9 °C 21.2 °F /  -6 °C 30.39in /  1029hPa Calm     30% 0.00in /  0mm 0.0 W/m2
23:00 51.4 °F /  10.8 °C 21.7 °F /  -5.7 °C 30.39in /  1029hPa Calm   4.0mph /  6.4km/h 31% 0.00in /  0mm 0.0 W/m2
23:06 51.3 °F /  10.7 °C 21.6 °F /  -5.8 °C 30.38in /  1028.7hPa Calm   1.0mph /  1.6km/h 31% 0.00in /  0mm 0.0 W/m2
23:12 51.3 °F /  10.7 °C 21.6 °F /  -5.8 °C 30.39in /  1029hPa Calm   1.0mph /  1.6km/h 31% 0.00in /  0mm 0.0 W/m2
23:18 51.3 °F /  10.7 °C 21.6 °F /  -5.8 °C 30.38in /  1028.7hPa Calm   1.0mph /  1.6km/h 31% 0.00in /  0mm 0.0 W/m2
23:24 51.3 °F /  10.7 °C 21.6 °F /  -5.8 °C 30.38in /  1028.7hPa Calm     31% 0.00in /  0mm 0.0 W/m2
23:30 51.3 °F /  10.7 °C 22.5 °F /  -5.3 °C 30.38in /  1028.7hPa Calm     32% 0.00in /  0mm 0.0 W/m2
23:36 51.1 °F /  10.6 °C 22.3 °F /  -5.4 °C 30.38in /  1028.7hPa Calm     32% 0.00in /  0mm 0.0 W/m2
23:42 50.5 °F /  10.3 °C 21.7 °F /  -5.7 °C 30.38in /  1028.7hPa Calm     32% 0.00in /  0mm 0.0 W/m2
23:48 50.2 °F /  10.1 °C 22.1 °F /  -5.5 °C 30.38in /  1028.7hPa Calm   1.0mph /  1.6km/h 33% 0.00in /  0mm 0.0 W/m2
23:54 50.2 °F /  10.1 °C 21.4 °F /  -5.9 °C 30.38in /  1028.7hPa Calm     32% 0.00in /  0mm 0.0 W/m2
Olympia, Windhoek, Namibia
Compliments of Weather Underground - 3 mb